createdAt,value
2022-10-24T00:03:11.417Z,79.46
2022-10-24T00:05:48.377Z,79.26
2022-10-24T00:08:21.570Z,79.16
2022-10-24T00:11:00.415Z,79.04
2022-10-24T00:13:37.889Z,78.99
2022-10-24T00:18:57.348Z,78.78
2022-10-24T00:21:34.250Z,80.41
2022-10-24T00:24:11.090Z,79.69
2022-10-24T00:26:50.383Z,79.19
2022-10-24T00:29:25.040Z,78.94
2022-10-24T00:32:00.345Z,78.74
2022-10-24T00:34:33.457Z,78.45
2022-10-24T00:37:09.331Z,78.35
2022-10-24T00:39:42.365Z,78.33
2022-10-24T00:42:15.555Z,78.33
2022-10-24T00:44:51.126Z,78.28
2022-10-24T00:47:27.090Z,78.17
2022-10-24T00:50:03.205Z,78.16
2022-10-24T00:52:47.794Z,78.16
2022-10-24T00:55:22.881Z,78.28
2022-10-24T00:58:05.483Z,78.26
2022-10-24T01:00:42.130Z,78.33
2022-10-24T01:03:15.755Z,78.41
2022-10-24T01:05:57.898Z,78.44
2022-10-24T01:08:34.358Z,78.31
2022-10-24T01:11:12.341Z,78.17
2022-10-24T01:16:38.013Z,78.06
2022-10-24T01:19:19.615Z,77.81
2022-10-24T01:22:05.598Z,78.03
2022-10-24T01:24:51.824Z,77.99
2022-10-24T01:27:44.521Z,77.94
2022-10-24T01:30:21.999Z,77.90
2022-10-24T01:33:01.455Z,77.83
2022-10-24T01:35:41.205Z,77.44
2022-10-24T01:38:18.508Z,77.65
2022-10-24T01:40:58.461Z,77.60
2022-10-24T01:43:37.485Z,77.56
2022-10-24T01:46:13.789Z,77.62
2022-10-24T01:49:07.333Z,77.71
2022-10-24T01:51:44.697Z,77.68
2022-10-24T01:54:18.465Z,77.51
2022-10-24T01:56:58.255Z,77.50
2022-10-24T01:59:46.744Z,77.63
2022-10-24T02:02:26.663Z,77.68
2022-10-24T02:05:05.711Z,77.73
2022-10-24T02:07:46.406Z,77.77
2022-10-24T02:10:29.926Z,77.78
2022-10-24T02:15:49.726Z,77.93
2022-10-24T02:18:26.723Z,77.76
2022-10-24T02:21:03.012Z,77.75
2022-10-24T02:23:43.634Z,77.92
2022-10-24T02:26:19.800Z,77.96
2022-10-24T02:28:59.049Z,78.07
2022-10-24T02:31:35.811Z,78.20
2022-10-24T02:36:48.362Z,78.24
2022-10-24T02:39:23.504Z,78.43
2022-10-24T02:42:01.930Z,78.56
2022-10-24T02:44:47.327Z,78.73
2022-10-24T02:47:23.057Z,78.86
2022-10-24T02:49:56.959Z,78.95
2022-10-24T02:52:31.123Z,79.00
2022-10-24T02:55:07.928Z,78.96
2022-10-24T02:57:41.265Z,79.00
2022-10-24T03:03:23.390Z,79.13
2022-10-24T03:05:56.464Z,79.07
2022-10-24T03:08:30.944Z,79.11
2022-10-24T03:11:08.951Z,79.17
2022-10-24T03:13:42.143Z,79.20
2022-10-24T03:16:15.378Z,79.20
2022-10-24T03:18:51.159Z,79.23
2022-10-24T03:21:25.497Z,79.26
2022-10-24T03:24:01.077Z,79.33
2022-10-24T03:26:40.031Z,79.35
2022-10-24T03:29:14.208Z,79.44
2022-10-24T03:32:00.546Z,79.47
2022-10-24T03:34:35.465Z,79.38
2022-10-24T03:37:11.523Z,79.30
2022-10-24T03:39:46.317Z,79.40
2022-10-24T03:42:22.490Z,79.48
2022-10-24T03:44:57.005Z,79.47
2022-10-24T03:47:39.252Z,79.46
2022-10-24T03:50:13.204Z,79.55
2022-10-24T03:52:50.220Z,79.63
2022-10-24T03:55:27.417Z,79.72
2022-10-24T03:58:00.814Z,79.71
2022-10-24T04:00:40.810Z,79.75
2022-10-24T04:03:16.710Z,79.83
2022-10-24T04:05:49.953Z,79.87
2022-10-24T04:08:27.013Z,79.90
2022-10-24T04:11:00.144Z,79.95
2022-10-24T04:13:34.904Z,80.04
2022-10-24T04:16:14.354Z,80.10
2022-10-24T04:18:55.845Z,80.20
2022-10-24T04:21:32.483Z,80.29
2022-10-24T04:24:08.980Z,80.25
2022-10-24T04:26:46.763Z,80.22
2022-10-24T04:29:21.274Z,80.26
2022-10-24T04:31:54.451Z,80.22
2022-10-24T04:34:33.048Z,80.14
2022-10-24T04:37:09.717Z,80.14
2022-10-24T04:39:47.696Z,80.10
2022-10-24T04:42:26.141Z,79.92
2022-10-24T04:45:03.828Z,79.92
2022-10-24T04:47:38.048Z,80.03
2022-10-24T04:50:15.168Z,80.19
2022-10-24T04:52:52.910Z,80.30
2022-10-24T04:55:28.780Z,80.23
2022-10-24T04:58:26.393Z,80.34
2022-10-24T05:01:03.273Z,80.24
2022-10-24T05:03:44.124Z,80.23
2022-10-24T05:06:19.379Z,80.26
2022-10-24T05:08:59.315Z,80.31
2022-10-24T05:11:35.660Z,80.28
2022-10-24T05:14:14.542Z,80.25
2022-10-24T05:16:53.125Z,80.29
2022-10-24T05:19:31.929Z,79.98
2022-10-24T05:22:10.735Z,79.98
2022-10-24T05:24:46.894Z,79.86
2022-10-24T05:27:24.431Z,79.90
2022-10-24T05:30:01.167Z,79.80
2022-10-24T05:32:38.747Z,79.94
2022-10-24T05:35:13.915Z,79.99
2022-10-24T05:38:05.990Z,80.04
2022-10-24T05:40:40.990Z,80.12
2022-10-24T05:43:14.446Z,80.04
2022-10-24T05:45:54.203Z,80.08
2022-10-24T05:48:28.296Z,80.10
2022-10-24T05:51:03.200Z,80.11
2022-10-24T05:53:37.992Z,80.13
2022-10-24T05:56:14.805Z,80.10
2022-10-24T06:01:37.212Z,79.89
2022-10-24T06:04:18.773Z,81.08
2022-10-24T06:06:57.510Z,80.27
2022-10-24T06:09:37.437Z,79.87
2022-10-24T06:12:12.919Z,79.72
2022-10-24T06:14:48.033Z,78.57
2022-10-24T06:17:25.850Z,76.74
2022-10-24T06:19:58.990Z,75.77
2022-10-24T06:22:34.165Z,75.16
2022-10-24T06:25:08.142Z,75.68
2022-10-24T06:27:43.685Z,75.13
2022-10-24T06:30:19.808Z,74.79
2022-10-24T06:32:54.446Z,75.21
2022-10-24T06:35:31.633Z,75.21
2022-10-24T06:38:04.692Z,75.32
2022-10-24T06:40:49.849Z,74.42
2022-10-24T06:43:23.282Z,74.62
2022-10-24T06:45:58.946Z,74.75
2022-10-24T06:48:32.058Z,74.79
2022-10-24T06:51:08.514Z,74.54
2022-10-24T06:53:45.014Z,74.92
2022-10-24T06:56:19.808Z,75.33
2022-10-24T06:58:55.954Z,75.47
2022-10-24T07:01:32.887Z,75.21
2022-10-24T07:04:08.359Z,75.21
2022-10-24T07:06:44.715Z,74.98
2022-10-24T07:09:21.046Z,74.58
2022-10-24T07:11:54.240Z,73.92
2022-10-24T07:14:29.905Z,71.61
2022-10-24T07:19:55.750Z,71.48
2022-10-24T07:22:31.366Z,70.86
2022-10-24T07:25:05.439Z,71.53
2022-10-24T07:27:46.121Z,71.39
2022-10-24T07:30:23.512Z,70.94
2022-10-24T07:32:58.223Z,70.79
2022-10-24T07:35:49.011Z,71.41
2022-10-24T07:38:26.367Z,71.74
2022-10-24T07:41:00.437Z,71.75
2022-10-24T07:43:33.932Z,71.53
2022-10-24T07:46:09.864Z,71.44
2022-10-24T07:48:53.076Z,71.39
2022-10-24T07:51:31.790Z,71.00
2022-10-24T07:54:06.269Z,70.83
2022-10-24T07:56:39.414Z,69.93
2022-10-24T07:59:29.848Z,70.16
2022-10-24T08:01:47.901Z,70.10
2022-10-24T08:04:21.028Z,70.52
2022-10-24T08:06:54.239Z,70.97
2022-10-24T08:09:28.711Z,71.52
2022-10-24T08:12:01.871Z,71.88
2022-10-24T08:14:34.982Z,71.99
2022-10-24T08:17:08.764Z,71.85
2022-10-24T08:19:44.021Z,71.84
2022-10-24T08:22:17.738Z,71.59
2022-10-24T08:24:50.793Z,71.23
2022-10-24T08:27:23.977Z,71.06
2022-10-24T08:29:57.123Z,70.94
2022-10-24T08:32:30.423Z,70.80
2022-10-24T08:35:03.961Z,70.72
2022-10-24T08:37:38.694Z,70.61
2022-10-24T08:40:16.749Z,70.54
2022-10-24T08:42:50.913Z,70.04
2022-10-24T08:48:12.074Z,70.14
2022-10-24T08:50:48.056Z,70.04
2022-10-24T08:53:31.199Z,70.58
2022-10-24T08:56:06.598Z,70.67
2022-10-24T08:58:43.563Z,70.39
2022-10-24T09:04:02.941Z,69.78
2022-10-24T09:06:36.641Z,69.45
2022-10-24T09:09:14.610Z,68.92
2022-10-24T09:11:51.687Z,68.38
2022-10-24T09:14:27.192Z,67.91
2022-10-24T09:17:03.495Z,67.56
2022-10-24T09:19:37.286Z,67.22
2022-10-24T09:22:13.044Z,66.34
2022-10-24T09:24:49.852Z,64.43
2022-10-24T09:27:26.061Z,62.44
2022-10-24T09:30:00.345Z,57.95
2022-10-24T09:32:37.620Z,51.08
2022-10-24T09:35:15.108Z,45.75
2022-10-24T09:37:50.604Z,40.96
2022-10-24T09:40:26.414Z,41.73
2022-10-24T09:43:02.898Z,40.50
2022-10-24T09:45:41.060Z,41.74
2022-10-24T09:48:29.161Z,42.17
2022-10-24T09:51:00.737Z,42.12
2022-10-24T09:53:36.550Z,42.78
2022-10-24T09:56:13.827Z,44.34
2022-10-24T09:58:46.969Z,42.73
2022-10-24T10:01:23.948Z,39.26
2022-10-24T10:04:09.389Z,35.47
2022-10-24T10:06:44.789Z,33.22
2022-10-24T10:09:22.260Z,35.12
2022-10-24T10:12:03.518Z,36.48
2022-10-24T10:14:36.456Z,39.79
2022-10-24T10:17:12.837Z,40.78
2022-10-24T10:19:49.141Z,39.81
2022-10-24T10:22:29.669Z,39.19
2022-10-24T10:25:03.801Z,40.90
2022-10-24T10:27:39.345Z,41.40
2022-10-24T10:30:23.031Z,43.52
2022-10-24T10:33:13.954Z,43.15
2022-10-24T10:35:52.006Z,44.08
2022-10-24T10:38:38.347Z,41.32
2022-10-24T10:41:16.173Z,37.39
2022-10-24T10:43:55.713Z,33.39
2022-10-24T10:46:32.051Z,31.99
2022-10-24T10:49:10.844Z,31.27
2022-10-24T10:51:47.684Z,31.94
2022-10-24T10:54:29.793Z,30.08
2022-10-24T10:57:07.022Z,33.67
2022-10-24T10:59:56.693Z,32.94
2022-10-24T11:03:06.542Z,33.94
2022-10-24T11:08:35.157Z,32.49
2022-10-24T11:11:12.470Z,31.49
2022-10-24T11:13:49.693Z,29.88
2022-10-24T11:16:26.011Z,30.54
2022-10-24T11:19:03.764Z,31.13
2022-10-24T11:21:39.704Z,32.08
2022-10-24T11:24:16.827Z,31.64
2022-10-24T11:26:52.981Z,31.07
2022-10-24T11:29:31.240Z,31.18
2022-10-24T11:32:07.778Z,29.37
2022-10-24T11:34:44.701Z,28.12
2022-10-24T11:37:21.405Z,27.96
2022-10-24T11:39:58.530Z,27.49
2022-10-24T11:42:34.047Z,28.72
2022-10-24T11:45:12.673Z,31.71
2022-10-24T11:48:10.154Z,29.27
2022-10-24T11:50:49.674Z,29.48
2022-10-24T11:53:48.122Z,28.73
2022-10-24T11:56:27.169Z,30.32
2022-10-24T11:59:04.165Z,29.63
2022-10-24T12:02:02.096Z,28.55
2022-10-24T12:04:58.115Z,28.97
2022-10-24T12:08:05.871Z,28.87
2022-10-24T12:10:51.173Z,29.45
2022-10-24T12:16:43.261Z,27.35
2022-10-24T12:19:19.939Z,27.24
2022-10-24T12:21:56.480Z,26.60
2022-10-24T12:24:34.623Z,26.61
2022-10-24T12:27:13.170Z,26.12
2022-10-24T12:29:46.507Z,25.86
2022-10-24T12:32:28.658Z,25.50
2022-10-24T12:35:28.949Z,25.68
2022-10-24T12:37:40.272Z,25.93
2022-10-24T12:40:48.396Z,25.15
2022-10-24T12:43:34.012Z,25.35
2022-10-24T12:46:43.222Z,25.89
2022-10-24T12:49:37.129Z,25.86
2022-10-24T12:52:44.635Z,25.77
2022-10-24T12:55:50.058Z,26.27
2022-10-24T12:58:26.853Z,26.37
2022-10-24T13:01:02.892Z,26.19
2022-10-24T13:04:21.006Z,26.86
2022-10-24T13:07:21.171Z,27.20
2022-10-24T13:12:51.133Z,29.38
2022-10-24T13:15:31.399Z,26.44
2022-10-24T13:18:17.825Z,28.13
2022-10-24T13:20:55.232Z,28.46
2022-10-24T13:23:30.614Z,29.01
2022-10-24T13:26:05.702Z,30.08
2022-10-24T13:28:43.567Z,31.19
2022-10-24T13:31:32.811Z,31.36
2022-10-24T13:34:34.299Z,34.37
2022-10-24T13:37:16.859Z,32.04
2022-10-24T13:39:53.468Z,32.04
2022-10-24T13:42:36.306Z,32.26
2022-10-24T13:45:18.813Z,32.51
2022-10-24T13:47:55.218Z,32.74
2022-10-24T13:50:31.748Z,33.32
2022-10-24T13:53:08.834Z,33.59
2022-10-24T13:55:48.189Z,34.19
2022-10-24T13:58:24.065Z,34.52
2022-10-24T14:01:00.262Z,34.93
2022-10-24T14:03:37.552Z,35.31
2022-10-24T14:06:11.330Z,35.60
2022-10-24T14:08:59.698Z,36.45
2022-10-24T14:14:09.239Z,37.71
2022-10-24T14:16:42.077Z,37.48
2022-10-24T14:19:27.116Z,37.68
2022-10-24T14:21:57.174Z,37.89
2022-10-24T14:24:32.739Z,38.51
2022-10-24T14:27:06.744Z,38.71
2022-10-24T14:29:41.929Z,39.03
2022-10-24T14:32:17.903Z,39.57
2022-10-24T14:34:54.509Z,39.99
2022-10-24T14:37:36.723Z,40.11
2022-10-24T14:40:18.493Z,40.27
2022-10-24T14:42:52.169Z,40.36
2022-10-24T14:45:27.696Z,40.42
2022-10-24T14:48:03.597Z,40.64
2022-10-24T14:50:41.184Z,40.97
2022-10-24T14:53:26.966Z,41.03
2022-10-24T14:56:03.456Z,41.03
2022-10-24T14:58:39.320Z,41.10
2022-10-24T15:01:21.122Z,41.27
2022-10-24T15:03:55.829Z,41.41
2022-10-24T15:06:30.633Z,41.72
2022-10-24T15:09:07.106Z,42.03
2022-10-24T15:11:43.276Z,42.33
2022-10-24T15:14:36.681Z,42.54
2022-10-24T15:20:05.387Z,42.51
2022-10-24T15:22:43.535Z,42.82
2022-10-24T15:25:23.721Z,42.78
2022-10-24T15:27:58.617Z,42.84
2022-10-24T15:30:34.131Z,43.00
2022-10-24T15:33:09.556Z,43.11
2022-10-24T15:35:43.960Z,43.20
2022-10-24T15:38:18.939Z,43.17
2022-10-24T15:40:52.827Z,43.29
2022-10-24T15:43:26.219Z,43.29
2022-10-24T15:45:59.331Z,43.34
2022-10-24T15:48:32.549Z,43.52
2022-10-24T15:51:08.277Z,43.60
2022-10-24T15:53:42.082Z,43.62
2022-10-24T15:56:15.771Z,43.70
2022-10-24T16:01:28.981Z,43.85
2022-10-24T16:04:03.379Z,43.86
2022-10-24T16:06:36.552Z,43.91
2022-10-24T16:09:15.312Z,44.00
2022-10-24T16:11:48.919Z,44.14
2022-10-24T16:14:25.954Z,44.29
2022-10-24T16:16:59.309Z,44.30
2022-10-24T16:19:32.382Z,44.36
2022-10-24T16:22:07.285Z,44.60
2022-10-24T16:24:40.529Z,44.88
2022-10-24T16:27:17.953Z,45.18
2022-10-24T16:29:55.012Z,45.12
2022-10-24T16:32:28.994Z,45.26
2022-10-24T16:35:02.916Z,45.33
2022-10-24T16:37:36.512Z,45.34
2022-10-24T16:40:22.937Z,45.49
2022-10-24T16:42:58.374Z,45.54
2022-10-24T16:45:41.582Z,45.53
2022-10-24T16:48:16.501Z,45.69
2022-10-24T16:50:54.984Z,45.95
2022-10-24T16:53:29.658Z,46.11
2022-10-24T16:56:05.166Z,46.27
2022-10-24T16:58:41.622Z,46.27
2022-10-24T17:01:16.948Z,46.23
2022-10-24T17:03:52.806Z,46.20
2022-10-24T17:06:34.624Z,46.24
2022-10-24T17:09:07.959Z,46.28
2022-10-24T17:11:46.477Z,46.38
2022-10-24T17:14:17.442Z,46.60
2022-10-24T17:16:50.623Z,46.71
2022-10-24T17:19:23.728Z,46.79
2022-10-24T17:21:59.030Z,46.74
2022-10-24T17:24:33.736Z,46.94
2022-10-24T17:27:09.522Z,47.04
2022-10-24T17:29:45.069Z,47.31
2022-10-24T17:32:18.965Z,47.22
2022-10-24T17:34:53.876Z,47.21
2022-10-24T17:37:30.966Z,47.23
2022-10-24T17:40:07.365Z,47.21
2022-10-24T17:42:41.555Z,47.10
2022-10-24T17:45:18.378Z,47.25
2022-10-24T17:47:53.777Z,47.28
2022-10-24T17:50:26.956Z,47.29
2022-10-24T17:53:00.271Z,47.30
2022-10-24T17:55:45.552Z,47.37
2022-10-24T17:58:08.994Z,47.47
2022-10-24T18:00:42.288Z,47.48
2022-10-24T18:03:16.253Z,47.61
2022-10-24T18:05:49.396Z,47.71
2022-10-24T18:08:22.547Z,47.83
2022-10-24T18:10:55.832Z,47.84
2022-10-24T18:13:28.965Z,48.03
2022-10-24T18:16:03.648Z,48.07
2022-10-24T18:18:39.502Z,48.29
2022-10-24T18:21:15.952Z,48.59
2022-10-24T18:23:49.501Z,48.71
2022-10-24T18:26:27.513Z,48.72
2022-10-24T18:29:00.922Z,48.66
2022-10-24T18:31:35.010Z,48.62
2022-10-24T18:34:08.926Z,48.74
2022-10-24T18:36:42.343Z,48.76
2022-10-24T18:39:15.574Z,48.79
2022-10-24T18:41:52.337Z,48.87
2022-10-24T18:44:29.925Z,49.11
2022-10-24T18:47:06.974Z,49.15
2022-10-24T18:49:41.774Z,48.99
2022-10-24T18:52:20.322Z,48.93
2022-10-24T18:54:59.540Z,49.01
2022-10-24T18:57:37.498Z,49.17
2022-10-24T19:00:16.775Z,49.30
2022-10-24T19:02:57.621Z,49.37
2022-10-24T19:08:33.434Z,48.68
2022-10-24T19:11:13.190Z,49.45
2022-10-24T19:16:39.860Z,49.62
2022-10-24T19:19:22.806Z,49.69
2022-10-24T19:22:04.480Z,49.78
2022-10-24T19:24:38.388Z,49.74
2022-10-24T19:27:12.010Z,49.77
2022-10-24T19:29:46.905Z,49.79
2022-10-24T19:32:20.209Z,49.94
2022-10-24T19:35:00.822Z,50.18
2022-10-24T19:37:35.197Z,50.33
2022-10-24T19:40:13.179Z,50.60
2022-10-24T19:42:48.959Z,50.77
2022-10-24T19:45:25.090Z,50.90
2022-10-24T19:48:03.457Z,50.86
2022-10-24T19:50:37.504Z,51.08
2022-10-24T19:56:12.570Z,51.55
2022-10-24T19:58:49.085Z,51.39
2022-10-24T20:01:25.940Z,51.35
2022-10-24T20:04:02.244Z,51.52
2022-10-24T20:06:36.519Z,51.59
2022-10-24T20:09:10.329Z,51.72
2022-10-24T20:11:43.938Z,51.62
2022-10-24T20:14:17.545Z,51.68
2022-10-24T20:16:51.866Z,51.69
2022-10-24T20:19:25.069Z,51.63
2022-10-24T20:22:01.619Z,51.71
2022-10-24T20:24:34.069Z,51.96
2022-10-24T20:27:07.510Z,52.13
2022-10-24T20:29:41.319Z,52.21
2022-10-24T20:32:14.676Z,52.53
2022-10-24T20:34:47.900Z,52.83
2022-10-24T20:37:21.553Z,52.81
2022-10-24T20:39:55.721Z,52.65
2022-10-24T20:42:29.112Z,52.54
2022-10-24T20:45:02.215Z,52.34
2022-10-24T20:47:36.846Z,52.16
2022-10-24T20:50:11.523Z,52.09
2022-10-24T20:52:45.343Z,52.15
2022-10-24T20:55:31.673Z,52.20
2022-10-24T20:57:55.217Z,52.36
2022-10-24T21:00:28.609Z,52.29
2022-10-24T21:03:01.789Z,52.26
2022-10-24T21:05:36.839Z,52.29
2022-10-24T21:08:10.006Z,52.44
2022-10-24T21:10:43.102Z,52.45
2022-10-24T21:13:16.288Z,52.51
2022-10-24T21:15:49.715Z,52.69
2022-10-24T21:18:23.189Z,52.72
2022-10-24T21:20:56.266Z,52.74
2022-10-24T21:23:29.762Z,52.73
2022-10-24T21:26:08.072Z,52.64
2022-10-24T21:28:42.001Z,52.62
2022-10-24T21:31:16.907Z,52.70
2022-10-24T21:33:50.811Z,52.84
2022-10-24T21:36:25.531Z,52.95
2022-10-24T21:39:00.333Z,52.85
2022-10-24T21:41:34.578Z,52.91
2022-10-24T21:44:07.990Z,52.96
2022-10-24T21:46:41.750Z,53.06
2022-10-24T21:49:15.301Z,53.22
2022-10-24T21:51:49.715Z,53.22
2022-10-24T21:54:24.934Z,53.18
2022-10-24T21:56:58.355Z,53.17
2022-10-24T21:59:32.121Z,53.11
2022-10-24T22:02:06.410Z,53.13
2022-10-24T22:04:39.960Z,53.06
2022-10-24T22:07:13.564Z,53.11
2022-10-24T22:09:47.025Z,53.16
2022-10-24T22:12:20.711Z,53.22
2022-10-24T22:14:53.748Z,53.29
2022-10-24T22:17:27.107Z,53.37
2022-10-24T22:20:00.577Z,53.45
2022-10-24T22:22:34.150Z,53.59
2022-10-24T22:25:09.543Z,53.68
2022-10-24T22:27:43.071Z,53.78
2022-10-24T22:30:17.199Z,53.90
2022-10-24T22:32:51.689Z,54.02
2022-10-24T22:35:26.354Z,54.01
2022-10-24T22:38:00.849Z,54.17
2022-10-24T22:40:35.531Z,54.17
2022-10-24T22:43:10.081Z,54.22
2022-10-24T22:45:46.506Z,54.20
2022-10-24T22:48:22.792Z,54.19
2022-10-24T22:50:58.324Z,54.20
2022-10-24T22:53:33.193Z,54.27
2022-10-24T22:56:19.536Z,54.53
2022-10-24T22:58:54.479Z,54.60
2022-10-24T23:01:38.203Z,54.68
2022-10-24T23:04:19.477Z,54.71
2022-10-24T23:06:55.640Z,54.68
2022-10-24T23:09:29.086Z,54.65
2022-10-24T23:12:03.540Z,54.66
2022-10-24T23:14:38.115Z,54.69
2022-10-24T23:17:12.916Z,54.63
2022-10-24T23:19:48.271Z,54.66
2022-10-24T23:22:25.095Z,54.62
2022-10-24T23:25:01.089Z,54.63
2022-10-24T23:27:39.432Z,54.58
2022-10-24T23:30:18.299Z,54.70
2022-10-24T23:32:53.246Z,54.70
2022-10-24T23:35:28.087Z,54.93
2022-10-24T23:38:02.547Z,54.98
2022-10-24T23:40:37.520Z,55.08
2022-10-24T23:43:15.293Z,55.05
2022-10-24T23:45:51.835Z,55.06
2022-10-24T23:48:29.159Z,54.98
2022-10-24T23:51:06.542Z,55.02
2022-10-24T23:53:50.413Z,54.95
2022-10-24T23:56:26.347Z,54.96
2022-10-24T23:58:59.704Z,55.29
